sensor_id;sensor_type;location;lat;lon;timestamp;P1;durP1;ratioP1;P2;durP2;ratioP2
11498;SDS011;5806;48.748;9.278;2023-12-20T00:01:08;13.83;;;11.83;;
11498;SDS011;5806;48.748;9.278;2023-12-20T00:03:36;15.13;;;12.40;;
11498;SDS011;5806;48.748;9.278;2023-12-20T00:06:05;14.77;;;12.07;;
11498;SDS011;5806;48.748;9.278;2023-12-20T00:08:33;15.70;;;12.67;;
11498;SDS011;5806;48.748;9.278;2023-12-20T00:11:02;15.93;;;12.90;;
11498;SDS011;5806;48.748;9.278;2023-12-20T00:13:29;17.43;;;12.93;;
11498;SDS011;5806;48.748;9.278;2023-12-20T00:15:58;14.50;;;12.67;;
11498;SDS011;5806;48.748;9.278;2023-12-20T00:18:26;18.90;;;14.77;;
11498;SDS011;5806;48.748;9.278;2023-12-20T00:20:53;18.87;;;14.10;;
11498;SDS011;5806;48.748;9.278;2023-12-20T00:23:23;18.13;;;13.73;;
11498;SDS011;5806;48.748;9.278;2023-12-20T00:25:51;17.57;;;13.83;;
11498;SDS011;5806;48.748;9.278;2023-12-20T00:28:18;18.63;;;13.60;;
11498;SDS011;5806;48.748;9.278;2023-12-20T00:30:46;18.23;;;13.33;;
11498;SDS011;5806;48.748;9.278;2023-12-20T00:33:14;18.17;;;14.33;;
11498;SDS011;5806;48.748;9.278;2023-12-20T00:35:41;18.27;;;13.70;;
11498;SDS011;5806;48.748;9.278;2023-12-20T00:38:09;17.00;;;13.30;;
11498;SDS011;5806;48.748;9.278;2023-12-20T00:40:37;16.17;;;12.70;;
11498;SDS011;5806;48.748;9.278;2023-12-20T00:43:04;15.27;;;11.50;;
11498;SDS011;5806;48.748;9.278;2023-12-20T00:45:32;11.40;;;8.67;;
11498;SDS011;5806;48.748;9.278;2023-12-20T00:47:59;13.23;;;9.60;;
11498;SDS011;5806;48.748;9.278;2023-12-20T00:50:27;9.77;;;6.93;;
11498;SDS011;5806;48.748;9.278;2023-12-20T00:52:54;8.13;;;6.47;;
11498;SDS011;5806;48.748;9.278;2023-12-20T00:55:22;11.40;;;7.40;;
11498;SDS011;5806;48.748;9.278;2023-12-20T00:57:49;12.00;;;7.47;;
11498;SDS011;5806;48.748;9.278;2023-12-20T01:00:18;11.97;;;8.37;;
11498;SDS011;5806;48.748;9.278;2023-12-20T01:02:46;10.77;;;7.93;;
11498;SDS011;5806;48.748;9.278;2023-12-20T01:05:15;12.63;;;9.03;;
11498;SDS011;5806;48.748;9.278;2023-12-20T01:07:43;14.97;;;10.23;;
11498;SDS011;5806;48.748;9.278;2023-12-20T01:10:10;13.63;;;10.00;;
11498;SDS011;5806;48.748;9.278;2023-12-20T01:12:38;16.60;;;10.00;;
11498;SDS011;5806;48.748;9.278;2023-12-20T01:15:05;13.93;;;10.73;;
11498;SDS011;5806;48.748;9.278;2023-12-20T01:17:33;16.60;;;10.03;;
11498;SDS011;5806;48.748;9.278;2023-12-20T01:20:01;13.53;;;8.87;;
11498;SDS011;5806;48.748;9.278;2023-12-20T01:22:29;10.50;;;7.80;;
11498;SDS011;5806;48.748;9.278;2023-12-20T01:24:56;14.90;;;8.90;;
11498;SDS011;5806;48.748;9.278;2023-12-20T01:27:24;12.40;;;9.07;;
11498;SDS011;5806;48.748;9.278;2023-12-20T01:29:53;11.90;;;8.63;;
11498;SDS011;5806;48.748;9.278;2023-12-20T01:32:20;12.63;;;7.80;;
11498;SDS011;5806;48.748;9.278;2023-12-20T01:34:48;10.40;;;7.40;;
11498;SDS011;5806;48.748;9.278;2023-12-20T01:37:16;10.90;;;7.00;;
11498;SDS011;5806;48.748;9.278;2023-12-20T01:39:43;9.67;;;7.10;;
11498;SDS011;5806;48.748;9.278;2023-12-20T01:42:11;14.70;;;7.63;;
11498;SDS011;5806;48.748;9.278;2023-12-20T01:44:38;11.67;;;6.67;;
11498;SDS011;5806;48.748;9.278;2023-12-20T01:47:06;13.77;;;7.23;;
11498;SDS011;5806;48.748;9.278;2023-12-20T01:49:34;11.87;;;6.73;;
11498;SDS011;5806;48.748;9.278;2023-12-20T01:52:02;11.03;;;6.77;;
11498;SDS011;5806;48.748;9.278;2023-12-20T01:54:30;10.93;;;7.20;;
11498;SDS011;5806;48.748;9.278;2023-12-20T01:56:58;10.87;;;7.33;;
11498;SDS011;5806;48.748;9.278;2023-12-20T01:59:26;10.80;;;7.50;;
11498;SDS011;5806;48.748;9.278;2023-12-20T02:01:55;14.77;;;8.23;;
11498;SDS011;5806;48.748;9.278;2023-12-20T02:04:25;14.33;;;7.97;;
11498;SDS011;5806;48.748;9.278;2023-12-20T02:06:53;15.70;;;8.20;;
11498;SDS011;5806;48.748;9.278;2023-12-20T02:09:23;13.00;;;8.50;;
11498;SDS011;5806;48.748;9.278;2023-12-20T02:11:53;15.23;;;8.60;;
11498;SDS011;5806;48.748;9.278;2023-12-20T02:14:20;13.93;;;9.33;;
11498;SDS011;5806;48.748;9.278;2023-12-20T02:16:48;13.73;;;8.10;;
11498;SDS011;5806;48.748;9.278;2023-12-20T02:19:17;13.63;;;8.83;;
11498;SDS011;5806;48.748;9.278;2023-12-20T02:21:48;11.97;;;8.60;;
11498;SDS011;5806;48.748;9.278;2023-12-20T02:24:16;13.60;;;7.87;;
11498;SDS011;5806;48.748;9.278;2023-12-20T02:26:43;13.57;;;7.90;;
11498;SDS011;5806;48.748;9.278;2023-12-20T02:29:11;13.10;;;8.33;;
11498;SDS011;5806;48.748;9.278;2023-12-20T02:31:38;12.93;;;8.13;;
11498;SDS011;5806;48.748;9.278;2023-12-20T02:34:06;16.10;;;8.30;;
11498;SDS011;5806;48.748;9.278;2023-12-20T02:36:33;10.87;;;7.67;;
11498;SDS011;5806;48.748;9.278;2023-12-20T02:39:01;15.80;;;7.70;;
11498;SDS011;5806;48.748;9.278;2023-12-20T02:41:29;14.97;;;7.20;;
11498;SDS011;5806;48.748;9.278;2023-12-20T02:43:57;14.43;;;7.30;;
11498;SDS011;5806;48.748;9.278;2023-12-20T02:46:24;12.33;;;6.60;;
11498;SDS011;5806;48.748;9.278;2023-12-20T02:48:53;17.33;;;7.50;;
11498;SDS011;5806;48.748;9.278;2023-12-20T02:51:21;17.97;;;7.37;;
11498;SDS011;5806;48.748;9.278;2023-12-20T02:53:48;15.60;;;7.60;;
11498;SDS011;5806;48.748;9.278;2023-12-20T02:56:16;10.03;;;6.53;;
11498;SDS011;5806;48.748;9.278;2023-12-20T02:58:43;18.63;;;7.30;;
11498;SDS011;5806;48.748;9.278;2023-12-20T03:01:11;15.10;;;6.23;;
11498;SDS011;5806;48.748;9.278;2023-12-20T03:03:39;15.63;;;6.30;;
11498;SDS011;5806;48.748;9.278;2023-12-20T03:06:07;13.77;;;7.40;;
11498;SDS011;5806;48.748;9.278;2023-12-20T03:08:34;15.40;;;6.43;;
11498;SDS011;5806;48.748;9.278;2023-12-20T03:11:02;15.10;;;5.90;;
11498;SDS011;5806;48.748;9.278;2023-12-20T03:13:30;29.00;;;5.57;;
11498;SDS011;5806;48.748;9.278;2023-12-20T03:15:57;13.97;;;5.50;;
11498;SDS011;5806;48.748;9.278;2023-12-20T03:18:25;12.23;;;4.03;;
11498;SDS011;5806;48.748;9.278;2023-12-20T03:20:54;11.90;;;3.83;;
11498;SDS011;5806;48.748;9.278;2023-12-20T03:23:21;11.67;;;4.03;;
11498;SDS011;5806;48.748;9.278;2023-12-20T03:25:49;14.73;;;4.30;;
11498;SDS011;5806;48.748;9.278;2023-12-20T03:28:16;9.70;;;3.07;;
11498;SDS011;5806;48.748;9.278;2023-12-20T03:30:44;10.47;;;3.20;;
11498;SDS011;5806;48.748;9.278;2023-12-20T03:33:12;12.63;;;3.43;;
11498;SDS011;5806;48.748;9.278;2023-12-20T03:35:40;8.60;;;3.00;;
11498;SDS011;5806;48.748;9.278;2023-12-20T03:38:07;7.03;;;3.07;;
11498;SDS011;5806;48.748;9.278;2023-12-20T03:40:35;12.07;;;3.87;;
11498;SDS011;5806;48.748;9.278;2023-12-20T03:43:02;17.03;;;3.23;;
11498;SDS011;5806;48.748;9.278;2023-12-20T03:45:30;10.30;;;3.00;;
11498;SDS011;5806;48.748;9.278;2023-12-20T03:47:58;10.13;;;3.13;;
11498;SDS011;5806;48.748;9.278;2023-12-20T03:50:27;11.27;;;3.30;;
11498;SDS011;5806;48.748;9.278;2023-12-20T03:52:55;10.30;;;3.10;;
11498;SDS011;5806;48.748;9.278;2023-12-20T03:55:22;12.77;;;3.17;;
11498;SDS011;5806;48.748;9.278;2023-12-20T03:57:50;17.00;;;4.10;;
11498;SDS011;5806;48.748;9.278;2023-12-20T04:00:18;13.87;;;3.50;;
11498;SDS011;5806;48.748;9.278;2023-12-20T04:02:45;12.70;;;2.73;;
11498;SDS011;5806;48.748;9.278;2023-12-20T04:05:13;12.63;;;3.00;;
11498;SDS011;5806;48.748;9.278;2023-12-20T04:07:41;11.77;;;3.67;;
11498;SDS011;5806;48.748;9.278;2023-12-20T04:10:09;11.93;;;3.03;;
11498;SDS011;5806;48.748;9.278;2023-12-20T04:12:37;10.40;;;3.30;;
11498;SDS011;5806;48.748;9.278;2023-12-20T04:15:05;10.53;;;3.50;;
11498;SDS011;5806;48.748;9.278;2023-12-20T04:17:35;9.27;;;3.20;;
11498;SDS011;5806;48.748;9.278;2023-12-20T04:20:03;11.17;;;3.30;;
11498;SDS011;5806;48.748;9.278;2023-12-20T04:22:32;12.27;;;3.30;;
11498;SDS011;5806;48.748;9.278;2023-12-20T04:24:59;14.00;;;3.23;;
11498;SDS011;5806;48.748;9.278;2023-12-20T04:27:28;7.63;;;3.43;;
11498;SDS011;5806;48.748;9.278;2023-12-20T04:29:56;16.67;;;3.60;;
11498;SDS011;5806;48.748;9.278;2023-12-20T04:32:23;10.40;;;3.40;;
11498;SDS011;5806;48.748;9.278;2023-12-20T04:34:51;10.40;;;3.33;;
11498;SDS011;5806;48.748;9.278;2023-12-20T04:37:19;17.50;;;3.97;;
11498;SDS011;5806;48.748;9.278;2023-12-20T04:39:46;13.80;;;3.67;;
11498;SDS011;5806;48.748;9.278;2023-12-20T04:42:14;14.47;;;3.70;;
11498;SDS011;5806;48.748;9.278;2023-12-20T04:44:41;9.97;;;3.60;;
11498;SDS011;5806;48.748;9.278;2023-12-20T04:47:09;13.10;;;3.87;;
11498;SDS011;5806;48.748;9.278;2023-12-20T04:49:37;13.43;;;4.00;;
11498;SDS011;5806;48.748;9.278;2023-12-20T04:52:04;18.73;;;4.00;;
11498;SDS011;5806;48.748;9.278;2023-12-20T04:54:32;11.87;;;3.47;;
11498;SDS011;5806;48.748;9.278;2023-12-20T04:56:59;15.83;;;4.20;;
11498;SDS011;5806;48.748;9.278;2023-12-20T04:59:27;14.20;;;3.77;;
11498;SDS011;5806;48.748;9.278;2023-12-20T05:01:54;11.80;;;4.40;;
11498;SDS011;5806;48.748;9.278;2023-12-20T05:04:23;17.37;;;4.10;;
11498;SDS011;5806;48.748;9.278;2023-12-20T05:06:52;14.47;;;4.13;;
11498;SDS011;5806;48.748;9.278;2023-12-20T05:09:19;10.97;;;3.53;;
11498;SDS011;5806;48.748;9.278;2023-12-20T05:11:47;10.40;;;3.90;;
11498;SDS011;5806;48.748;9.278;2023-12-20T05:14:14;15.40;;;4.27;;
11498;SDS011;5806;48.748;9.278;2023-12-20T05:16:42;16.87;;;4.87;;
11498;SDS011;5806;48.748;9.278;2023-12-20T05:19:09;12.37;;;3.80;;
11498;SDS011;5806;48.748;9.278;2023-12-20T05:21:37;12.23;;;3.20;;
11498;SDS011;5806;48.748;9.278;2023-12-20T05:24:05;10.30;;;4.07;;
11498;SDS011;5806;48.748;9.278;2023-12-20T05:26:32;11.93;;;4.03;;
11498;SDS011;5806;48.748;9.278;2023-12-20T05:29:00;15.17;;;3.83;;
11498;SDS011;5806;48.748;9.278;2023-12-20T05:31:29;12.63;;;3.60;;
11498;SDS011;5806;48.748;9.278;2023-12-20T05:33:57;9.90;;;3.93;;
11498;SDS011;5806;48.748;9.278;2023-12-20T05:36:25;10.83;;;3.90;;
11498;SDS011;5806;48.748;9.278;2023-12-20T05:38:52;14.33;;;4.00;;
11498;SDS011;5806;48.748;9.278;2023-12-20T05:41:20;11.10;;;4.20;;
11498;SDS011;5806;48.748;9.278;2023-12-20T05:43:48;10.13;;;3.80;;
11498;SDS011;5806;48.748;9.278;2023-12-20T05:46:15;8.67;;;4.20;;
11498;SDS011;5806;48.748;9.278;2023-12-20T05:48:43;15.40;;;4.60;;
11498;SDS011;5806;48.748;9.278;2023-12-20T05:51:13;13.50;;;3.97;;
11498;SDS011;5806;48.748;9.278;2023-12-20T05:53:41;17.87;;;4.27;;
11498;SDS011;5806;48.748;9.278;2023-12-20T05:56:09;13.47;;;4.50;;
11498;SDS011;5806;48.748;9.278;2023-12-20T05:58:38;12.10;;;4.30;;
11498;SDS011;5806;48.748;9.278;2023-12-20T06:01:06;9.87;;;3.80;;
11498;SDS011;5806;48.748;9.278;2023-12-20T06:03:34;14.77;;;4.60;;
11498;SDS011;5806;48.748;9.278;2023-12-20T06:06:07;10.33;;;3.67;;
11498;SDS011;5806;48.748;9.278;2023-12-20T06:08:35;12.67;;;4.03;;
11498;SDS011;5806;48.748;9.278;2023-12-20T06:11:03;18.30;;;4.30;;
11498;SDS011;5806;48.748;9.278;2023-12-20T06:13:31;15.60;;;3.80;;
11498;SDS011;5806;48.748;9.278;2023-12-20T06:15:58;13.30;;;3.73;;
11498;SDS011;5806;48.748;9.278;2023-12-20T06:18:26;10.07;;;3.40;;
11498;SDS011;5806;48.748;9.278;2023-12-20T06:20:53;11.93;;;4.17;;
11498;SDS011;5806;48.748;9.278;2023-12-20T06:23:21;16.37;;;4.17;;
11498;SDS011;5806;48.748;9.278;2023-12-20T06:25:48;11.90;;;3.77;;
11498;SDS011;5806;48.748;9.278;2023-12-20T06:28:16;14.30;;;3.90;;
11498;SDS011;5806;48.748;9.278;2023-12-20T06:30:43;11.80;;;4.37;;
11498;SDS011;5806;48.748;9.278;2023-12-20T06:33:12;13.63;;;4.27;;
11498;SDS011;5806;48.748;9.278;2023-12-20T06:35:40;11.20;;;3.37;;
11498;SDS011;5806;48.748;9.278;2023-12-20T06:38:07;13.30;;;4.00;;
11498;SDS011;5806;48.748;9.278;2023-12-20T06:40:34;14.07;;;3.97;;
11498;SDS011;5806;48.748;9.278;2023-12-20T06:43:02;14.63;;;3.67;;
11498;SDS011;5806;48.748;9.278;2023-12-20T06:45:29;12.97;;;4.20;;
11498;SDS011;5806;48.748;9.278;2023-12-20T06:47:57;13.47;;;4.37;;
11498;SDS011;5806;48.748;9.278;2023-12-20T06:50:24;11.60;;;3.57;;
11498;SDS011;5806;48.748;9.278;2023-12-20T06:52:52;17.53;;;5.10;;
11498;SDS011;5806;48.748;9.278;2023-12-20T06:55:19;14.40;;;4.67;;
11498;SDS011;5806;48.748;9.278;2023-12-20T06:57:46;14.53;;;3.90;;
11498;SDS011;5806;48.748;9.278;2023-12-20T07:00:14;16.20;;;4.30;;
11498;SDS011;5806;48.748;9.278;2023-12-20T07:02:43;16.93;;;3.90;;
11498;SDS011;5806;48.748;9.278;2023-12-20T07:05:11;8.13;;;3.70;;
11498;SDS011;5806;48.748;9.278;2023-12-20T07:07:38;14.57;;;5.13;;
11498;SDS011;5806;48.748;9.278;2023-12-20T07:10:06;14.83;;;4.23;;
11498;SDS011;5806;48.748;9.278;2023-12-20T07:12:34;18.77;;;4.70;;
11498;SDS011;5806;48.748;9.278;2023-12-20T07:15:01;13.30;;;4.33;;
11498;SDS011;5806;48.748;9.278;2023-12-20T07:17:29;16.97;;;4.33;;
11498;SDS011;5806;48.748;9.278;2023-12-20T07:19:56;14.43;;;3.93;;
11498;SDS011;5806;48.748;9.278;2023-12-20T07:22:23;11.50;;;3.83;;
11498;SDS011;5806;48.748;9.278;2023-12-20T07:24:51;10.87;;;3.67;;
11498;SDS011;5806;48.748;9.278;2023-12-20T07:27:20;13.17;;;3.87;;
11498;SDS011;5806;48.748;9.278;2023-12-20T07:29:47;13.97;;;4.30;;
11498;SDS011;5806;48.748;9.278;2023-12-20T07:32:15;10.97;;;3.80;;
11498;SDS011;5806;48.748;9.278;2023-12-20T07:34:42;15.17;;;4.37;;
11498;SDS011;5806;48.748;9.278;2023-12-20T07:37:09;16.30;;;4.27;;
11498;SDS011;5806;48.748;9.278;2023-12-20T07:39:37;13.83;;;3.70;;
11498;SDS011;5806;48.748;9.278;2023-12-20T07:42:06;11.70;;;3.97;;
11498;SDS011;5806;48.748;9.278;2023-12-20T07:44:34;10.93;;;3.73;;
11498;SDS011;5806;48.748;9.278;2023-12-20T07:47:02;12.30;;;4.03;;
11498;SDS011;5806;48.748;9.278;2023-12-20T07:49:35;10.40;;;4.17;;
11498;SDS011;5806;48.748;9.278;2023-12-20T07:51:58;18.23;;;4.40;;
11498;SDS011;5806;48.748;9.278;2023-12-20T07:54:26;12.43;;;4.33;;
11498;SDS011;5806;48.748;9.278;2023-12-20T07:56:53;17.87;;;4.43;;
11498;SDS011;5806;48.748;9.278;2023-12-20T07:59:21;14.67;;;4.03;;
11498;SDS011;5806;48.748;9.278;2023-12-20T08:01:49;16.67;;;3.90;;
11498;SDS011;5806;48.748;9.278;2023-12-20T08:04:16;16.20;;;4.70;;
11498;SDS011;5806;48.748;9.278;2023-12-20T08:06:43;17.77;;;4.73;;
11498;SDS011;5806;48.748;9.278;2023-12-20T08:09:11;16.57;;;4.27;;
11498;SDS011;5806;48.748;9.278;2023-12-20T08:11:38;16.27;;;4.93;;
11498;SDS011;5806;48.748;9.278;2023-12-20T08:14:06;12.00;;;4.00;;
11498;SDS011;5806;48.748;9.278;2023-12-20T08:16:33;14.67;;;4.53;;
11498;SDS011;5806;48.748;9.278;2023-12-20T08:19:01;13.03;;;4.77;;
11498;SDS011;5806;48.748;9.278;2023-12-20T08:21:28;12.67;;;4.20;;
11498;SDS011;5806;48.748;9.278;2023-12-20T08:23:55;13.23;;;4.00;;
11498;SDS011;5806;48.748;9.278;2023-12-20T08:26:23;16.37;;;4.73;;
11498;SDS011;5806;48.748;9.278;2023-12-20T08:28:50;18.47;;;4.83;;
11498;SDS011;5806;48.748;9.278;2023-12-20T08:31:18;14.20;;;4.20;;
11498;SDS011;5806;48.748;9.278;2023-12-20T08:33:47;22.33;;;5.30;;
11498;SDS011;5806;48.748;9.278;2023-12-20T08:36:15;12.00;;;4.57;;
11498;SDS011;5806;48.748;9.278;2023-12-20T08:38:43;14.77;;;4.17;;
11498;SDS011;5806;48.748;9.278;2023-12-20T08:41:11;18.67;;;4.67;;
11498;SDS011;5806;48.748;9.278;2023-12-20T08:43:38;17.87;;;5.07;;
11498;SDS011;5806;48.748;9.278;2023-12-20T08:46:06;9.80;;;3.93;;
11498;SDS011;5806;48.748;9.278;2023-12-20T08:48:35;13.03;;;4.50;;
11498;SDS011;5806;48.748;9.278;2023-12-20T08:51:03;17.20;;;4.97;;
11498;SDS011;5806;48.748;9.278;2023-12-20T08:53:33;17.37;;;4.33;;
11498;SDS011;5806;48.748;9.278;2023-12-20T08:56:00;16.20;;;3.97;;
11498;SDS011;5806;48.748;9.278;2023-12-20T08:58:28;11.43;;;4.23;;
11498;SDS011;5806;48.748;9.278;2023-12-20T09:00:55;10.70;;;3.57;;
11498;SDS011;5806;48.748;9.278;2023-12-20T09:03:24;13.13;;;3.90;;
11498;SDS011;5806;48.748;9.278;2023-12-20T09:05:52;14.63;;;4.90;;
11498;SDS011;5806;48.748;9.278;2023-12-20T09:08:19;16.67;;;5.43;;
11498;SDS011;5806;48.748;9.278;2023-12-20T09:10:47;16.17;;;4.47;;
11498;SDS011;5806;48.748;9.278;2023-12-20T09:13:14;12.37;;;4.63;;
11498;SDS011;5806;48.748;9.278;2023-12-20T09:15:42;30.67;;;5.47;;
11498;SDS011;5806;48.748;9.278;2023-12-20T09:18:09;14.73;;;4.10;;
11498;SDS011;5806;48.748;9.278;2023-12-20T09:20:37;10.57;;;4.70;;
11498;SDS011;5806;48.748;9.278;2023-12-20T09:23:04;12.07;;;4.27;;
11498;SDS011;5806;48.748;9.278;2023-12-20T09:25:31;12.43;;;4.47;;
11498;SDS011;5806;48.748;9.278;2023-12-20T09:27:59;9.70;;;3.40;;
11498;SDS011;5806;48.748;9.278;2023-12-20T09:30:26;15.83;;;4.10;;
11498;SDS011;5806;48.748;9.278;2023-12-20T09:32:54;14.90;;;4.20;;
11498;SDS011;5806;48.748;9.278;2023-12-20T09:35:22;12.57;;;3.57;;
11498;SDS011;5806;48.748;9.278;2023-12-20T09:37:51;10.63;;;3.20;;
11498;SDS011;5806;48.748;9.278;2023-12-20T09:40:18;14.47;;;4.00;;
11498;SDS011;5806;48.748;9.278;2023-12-20T09:43:01;17.60;;;3.63;;
11498;SDS011;5806;48.748;9.278;2023-12-20T09:45:31;11.10;;;3.50;;
11498;SDS011;5806;48.748;9.278;2023-12-20T09:47:58;12.00;;;3.60;;
11498;SDS011;5806;48.748;9.278;2023-12-20T09:50:26;10.70;;;3.67;;
11498;SDS011;5806;48.748;9.278;2023-12-20T09:52:56;14.93;;;4.13;;
11498;SDS011;5806;48.748;9.278;2023-12-20T09:55:25;13.07;;;3.37;;
11498;SDS011;5806;48.748;9.278;2023-12-20T09:57:54;11.20;;;3.97;;
11498;SDS011;5806;48.748;9.278;2023-12-20T10:00:21;8.93;;;3.07;;
11498;SDS011;5806;48.748;9.278;2023-12-20T10:05:35;12.57;;;3.70;;
11498;SDS011;5806;48.748;9.278;2023-12-20T10:07:59;15.07;;;3.90;;
11498;SDS011;5806;48.748;9.278;2023-12-20T10:10:28;15.77;;;4.67;;
11498;SDS011;5806;48.748;9.278;2023-12-20T10:13:10;11.23;;;3.67;;
11498;SDS011;5806;48.748;9.278;2023-12-20T10:15:35;13.93;;;3.80;;
11498;SDS011;5806;48.748;9.278;2023-12-20T10:18:03;15.03;;;4.00;;
11498;SDS011;5806;48.748;9.278;2023-12-20T10:20:32;9.73;;;3.27;;
11498;SDS011;5806;48.748;9.278;2023-12-20T10:23:00;10.53;;;3.40;;
11498;SDS011;5806;48.748;9.278;2023-12-20T10:25:27;11.47;;;3.93;;
11498;SDS011;5806;48.748;9.278;2023-12-20T10:28:12;14.07;;;3.83;;
11498;SDS011;5806;48.748;9.278;2023-12-20T10:30:46;12.70;;;3.57;;
11498;SDS011;5806;48.748;9.278;2023-12-20T10:33:13;7.47;;;3.10;;
11498;SDS011;5806;48.748;9.278;2023-12-20T10:35:42;14.10;;;3.10;;
11498;SDS011;5806;48.748;9.278;2023-12-20T10:38:09;17.27;;;4.00;;
11498;SDS011;5806;48.748;9.278;2023-12-20T10:40:39;11.83;;;3.20;;
11498;SDS011;5806;48.748;9.278;2023-12-20T10:43:06;9.87;;;3.33;;
11498;SDS011;5806;48.748;9.278;2023-12-20T10:45:35;11.73;;;3.50;;
11498;SDS011;5806;48.748;9.278;2023-12-20T10:48:03;13.20;;;3.40;;
11498;SDS011;5806;48.748;9.278;2023-12-20T10:50:31;12.63;;;3.37;;
11498;SDS011;5806;48.748;9.278;2023-12-20T10:52:59;8.23;;;3.57;;
11498;SDS011;5806;48.748;9.278;2023-12-20T10:55:27;12.20;;;3.50;;
11498;SDS011;5806;48.748;9.278;2023-12-20T10:57:58;10.93;;;3.60;;
11498;SDS011;5806;48.748;9.278;2023-12-20T11:00:28;14.03;;;4.00;;
11498;SDS011;5806;48.748;9.278;2023-12-20T11:02:58;8.27;;;3.07;;
11498;SDS011;5806;48.748;9.278;2023-12-20T11:08:09;10.83;;;2.87;;
11498;SDS011;5806;48.748;9.278;2023-12-20T11:13:27;13.33;;;3.40;;
11498;SDS011;5806;48.748;9.278;2023-12-20T11:15:59;13.30;;;3.70;;
11498;SDS011;5806;48.748;9.278;2023-12-20T11:18:30;13.27;;;3.50;;
11498;SDS011;5806;48.748;9.278;2023-12-20T11:21:01;13.87;;;3.37;;
11498;SDS011;5806;48.748;9.278;2023-12-20T11:23:31;11.83;;;3.83;;
11498;SDS011;5806;48.748;9.278;2023-12-20T11:25:59;10.00;;;4.10;;
11498;SDS011;5806;48.748;9.278;2023-12-20T11:28:29;14.53;;;3.13;;
11498;SDS011;5806;48.748;9.278;2023-12-20T11:30:57;10.87;;;3.40;;
11498;SDS011;5806;48.748;9.278;2023-12-20T11:33:27;9.27;;;3.13;;
11498;SDS011;5806;48.748;9.278;2023-12-20T11:35:59;11.70;;;3.20;;
11498;SDS011;5806;48.748;9.278;2023-12-20T11:38:35;16.33;;;3.77;;
11498;SDS011;5806;48.748;9.278;2023-12-20T11:41:05;17.40;;;3.23;;
11498;SDS011;5806;48.748;9.278;2023-12-20T11:43:38;12.80;;;3.20;;
11498;SDS011;5806;48.748;9.278;2023-12-20T11:46:05;8.33;;;3.10;;
11498;SDS011;5806;48.748;9.278;2023-12-20T11:48:36;12.63;;;3.13;;
11498;SDS011;5806;48.748;9.278;2023-12-20T11:51:12;13.27;;;3.50;;
11498;SDS011;5806;48.748;9.278;2023-12-20T11:53:40;10.67;;;3.10;;
11498;SDS011;5806;48.748;9.278;2023-12-20T11:56:08;13.50;;;3.30;;
11498;SDS011;5806;48.748;9.278;2023-12-20T11:58:36;12.10;;;2.63;;
11498;SDS011;5806;48.748;9.278;2023-12-20T12:01:04;12.70;;;3.63;;
11498;SDS011;5806;48.748;9.278;2023-12-20T12:03:33;8.97;;;3.10;;
11498;SDS011;5806;48.748;9.278;2023-12-20T12:06:01;11.47;;;4.27;;
11498;SDS011;5806;48.748;9.278;2023-12-20T12:08:30;9.07;;;3.27;;
11498;SDS011;5806;48.748;9.278;2023-12-20T12:10:57;11.13;;;3.13;;
11498;SDS011;5806;48.748;9.278;2023-12-20T12:13:25;10.53;;;3.20;;
11498;SDS011;5806;48.748;9.278;2023-12-20T12:15:53;10.93;;;3.37;;
11498;SDS011;5806;48.748;9.278;2023-12-20T12:18:21;13.30;;;3.37;;
11498;SDS011;5806;48.748;9.278;2023-12-20T12:20:48;14.33;;;3.67;;
11498;SDS011;5806;48.748;9.278;2023-12-20T12:23:22;11.07;;;3.10;;
11498;SDS011;5806;48.748;9.278;2023-12-20T12:25:49;13.03;;;3.57;;
11498;SDS011;5806;48.748;9.278;2023-12-20T12:28:17;14.93;;;4.50;;
11498;SDS011;5806;48.748;9.278;2023-12-20T12:31:07;10.47;;;3.70;;
11498;SDS011;5806;48.748;9.278;2023-12-20T12:33:29;13.07;;;3.90;;
11498;SDS011;5806;48.748;9.278;2023-12-20T12:35:53;12.57;;;3.97;;
11498;SDS011;5806;48.748;9.278;2023-12-20T12:38:21;11.10;;;3.43;;
11498;SDS011;5806;48.748;9.278;2023-12-20T12:40:50;14.47;;;4.00;;
11498;SDS011;5806;48.748;9.278;2023-12-20T12:43:19;14.90;;;3.57;;
11498;SDS011;5806;48.748;9.278;2023-12-20T12:45:48;12.83;;;3.93;;
11498;SDS011;5806;48.748;9.278;2023-12-20T12:48:15;14.07;;;3.80;;
11498;SDS011;5806;48.748;9.278;2023-12-20T12:50:43;13.40;;;4.00;;
11498;SDS011;5806;48.748;9.278;2023-12-20T12:53:12;9.80;;;3.20;;
11498;SDS011;5806;48.748;9.278;2023-12-20T12:55:39;14.17;;;3.70;;
11498;SDS011;5806;48.748;9.278;2023-12-20T12:58:07;9.20;;;3.60;;
11498;SDS011;5806;48.748;9.278;2023-12-20T13:00:34;8.57;;;3.63;;
11498;SDS011;5806;48.748;9.278;2023-12-20T13:03:02;13.70;;;4.10;;
11498;SDS011;5806;48.748;9.278;2023-12-20T13:05:29;8.47;;;3.20;;
11498;SDS011;5806;48.748;9.278;2023-12-20T13:07:57;7.50;;;3.60;;
11498;SDS011;5806;48.748;9.278;2023-12-20T13:10:24;12.83;;;3.80;;
11498;SDS011;5806;48.748;9.278;2023-12-20T13:12:52;10.57;;;4.10;;
11498;SDS011;5806;48.748;9.278;2023-12-20T13:15:19;12.70;;;3.93;;
11498;SDS011;5806;48.748;9.278;2023-12-20T13:17:46;15.27;;;4.93;;
11498;SDS011;5806;48.748;9.278;2023-12-20T13:20:14;22.30;;;5.10;;
11498;SDS011;5806;48.748;9.278;2023-12-20T13:22:42;15.43;;;4.30;;
11498;SDS011;5806;48.748;9.278;2023-12-20T13:25:09;10.50;;;4.00;;
11498;SDS011;5806;48.748;9.278;2023-12-20T13:27:37;14.07;;;3.70;;
11498;SDS011;5806;48.748;9.278;2023-12-20T13:30:05;13.27;;;3.90;;
11498;SDS011;5806;48.748;9.278;2023-12-20T13:32:32;12.37;;;4.83;;
11498;SDS011;5806;48.748;9.278;2023-12-20T13:35:00;13.47;;;4.07;;
11498;SDS011;5806;48.748;9.278;2023-12-20T13:37:29;9.93;;;4.23;;
11498;SDS011;5806;48.748;9.278;2023-12-20T13:39:57;13.67;;;4.00;;
11498;SDS011;5806;48.748;9.278;2023-12-20T13:42:24;14.53;;;4.43;;
11498;SDS011;5806;48.748;9.278;2023-12-20T13:44:53;14.50;;;4.67;;
11498;SDS011;5806;48.748;9.278;2023-12-20T13:47:21;12.83;;;4.20;;
11498;SDS011;5806;48.748;9.278;2023-12-20T13:49:48;14.83;;;3.97;;
11498;SDS011;5806;48.748;9.278;2023-12-20T13:52:16;11.40;;;4.53;;
11498;SDS011;5806;48.748;9.278;2023-12-20T13:54:44;12.10;;;3.70;;
11498;SDS011;5806;48.748;9.278;2023-12-20T13:57:11;29.97;;;6.40;;
11498;SDS011;5806;48.748;9.278;2023-12-20T13:59:39;11.57;;;4.07;;
11498;SDS011;5806;48.748;9.278;2023-12-20T14:02:06;15.00;;;3.53;;
11498;SDS011;5806;48.748;9.278;2023-12-20T14:04:34;20.07;;;4.33;;
11498;SDS011;5806;48.748;9.278;2023-12-20T14:07:01;9.83;;;3.83;;
11498;SDS011;5806;48.748;9.278;2023-12-20T14:09:28;19.07;;;3.97;;
11498;SDS011;5806;48.748;9.278;2023-12-20T14:11:56;10.27;;;3.77;;
11498;SDS011;5806;48.748;9.278;2023-12-20T14:14:23;11.97;;;3.67;;
11498;SDS011;5806;48.748;9.278;2023-12-20T14:16:51;11.33;;;3.17;;
11498;SDS011;5806;48.748;9.278;2023-12-20T14:19:18;8.87;;;3.67;;
11498;SDS011;5806;48.748;9.278;2023-12-20T14:21:45;11.80;;;3.33;;
11498;SDS011;5806;48.748;9.278;2023-12-20T14:24:13;7.70;;;3.60;;
11498;SDS011;5806;48.748;9.278;2023-12-20T14:26:40;6.87;;;3.40;;
11498;SDS011;5806;48.748;9.278;2023-12-20T14:29:08;15.07;;;3.60;;
11498;SDS011;5806;48.748;9.278;2023-12-20T14:31:35;7.13;;;3.37;;
11498;SDS011;5806;48.748;9.278;2023-12-20T14:34:04;9.17;;;3.63;;
11498;SDS011;5806;48.748;9.278;2023-12-20T14:36:32;10.77;;;3.43;;
11498;SDS011;5806;48.748;9.278;2023-12-20T14:38:59;10.27;;;3.60;;
11498;SDS011;5806;48.748;9.278;2023-12-20T14:41:28;10.53;;;3.23;;
11498;SDS011;5806;48.748;9.278;2023-12-20T14:43:56;8.77;;;3.13;;
11498;SDS011;5806;48.748;9.278;2023-12-20T14:46:25;10.63;;;3.63;;
11498;SDS011;5806;48.748;9.278;2023-12-20T14:48:53;7.80;;;3.77;;
11498;SDS011;5806;48.748;9.278;2023-12-20T14:51:21;12.30;;;3.73;;
11498;SDS011;5806;48.748;9.278;2023-12-20T14:53:48;6.50;;;3.10;;
11498;SDS011;5806;48.748;9.278;2023-12-20T14:56:15;11.90;;;3.60;;
11498;SDS011;5806;48.748;9.278;2023-12-20T14:58:43;11.03;;;3.93;;
11498;SDS011;5806;48.748;9.278;2023-12-20T15:01:10;9.67;;;4.03;;